createdAt,value
2023-02-19T00:02:21.225Z,69.38
2023-02-19T00:05:45.174Z,69.28
2023-02-19T00:09:11.542Z,69.58
2023-02-19T00:12:35.581Z,70.05
2023-02-19T00:16:07.046Z,67.67
2023-02-19T00:19:31.226Z,66.70
2023-02-19T00:22:55.229Z,66.86
2023-02-19T00:26:19.972Z,67.66
2023-02-19T00:29:44.686Z,67.74
2023-02-19T00:33:09.393Z,66.23
2023-02-19T00:36:36.286Z,66.67
2023-02-19T00:40:00.450Z,67.57
2023-02-19T00:43:24.405Z,67.53
2023-02-19T00:46:49.139Z,68.26
2023-02-19T00:50:13.131Z,68.55
2023-02-19T00:53:39.831Z,63.84
2023-02-19T00:57:03.714Z,61.76
2023-02-19T01:00:27.619Z,60.50
2023-02-19T01:03:52.082Z,56.68
2023-02-19T01:07:16.104Z,58.80
2023-02-19T01:10:41.636Z,62.57
2023-02-19T01:14:05.695Z,68.63
2023-02-19T01:17:29.753Z,65.85
2023-02-19T01:20:53.860Z,62.36
2023-02-19T01:24:17.815Z,61.27
2023-02-19T01:27:41.742Z,60.42
2023-02-19T01:31:13.506Z,56.43
2023-02-19T01:34:37.630Z,56.88
2023-02-19T01:38:01.591Z,60.41
2023-02-19T01:41:26.805Z,65.72
2023-02-19T01:45:12.236Z,64.30
2023-02-19T01:48:40.517Z,57.84
2023-02-19T01:52:16.886Z,59.22
2023-02-19T01:55:41.774Z,63.57
2023-02-19T01:59:07.777Z,65.60
2023-02-19T02:02:31.901Z,63.09
2023-02-19T02:06:24.238Z,60.25
2023-02-19T02:10:06.198Z,57.91
2023-02-19T02:13:30.878Z,60.29
2023-02-19T02:17:06.868Z,65.90
2023-02-19T02:20:55.379Z,66.29
2023-02-19T02:24:42.698Z,63.60
2023-02-19T02:28:19.383Z,60.30
2023-02-19T02:32:06.239Z,56.01
2023-02-19T02:35:36.316Z,56.49
2023-02-19T02:39:05.298Z,59.42
2023-02-19T02:42:30.679Z,62.59
2023-02-19T02:45:59.045Z,66.89
2023-02-19T02:49:28.514Z,63.88
2023-02-19T02:53:17.663Z,61.45
2023-02-19T02:56:44.041Z,58.24
2023-02-19T03:00:08.684Z,55.54
2023-02-19T03:03:34.902Z,56.92
2023-02-19T03:07:03.244Z,60.44
2023-02-19T03:10:50.426Z,66.19
2023-02-19T03:14:33.119Z,65.94
2023-02-19T03:18:20.103Z,61.94
2023-02-19T03:21:46.776Z,57.53
2023-02-19T03:25:43.053Z,55.63
2023-02-19T03:29:24.425Z,57.77
2023-02-19T03:33:01.482Z,60.76
2023-02-19T03:36:31.624Z,67.38
2023-02-19T03:39:56.582Z,65.57
2023-02-19T03:43:25.197Z,62.38
2023-02-19T03:47:03.754Z,59.54
2023-02-19T03:50:37.714Z,56.27
2023-02-19T03:54:33.576Z,58.44
2023-02-19T03:58:15.298Z,59.56
2023-02-19T04:01:46.405Z,64.29
2023-02-19T04:05:25.976Z,68.76
2023-02-19T04:08:55.302Z,64.77
2023-02-19T04:12:23.756Z,61.73
2023-02-19T04:15:49.718Z,59.79
2023-02-19T04:19:15.254Z,56.83
2023-02-19T04:22:40.250Z,58.20
2023-02-19T04:26:06.792Z,59.57
2023-02-19T04:29:30.699Z,66.12
2023-02-19T04:32:54.555Z,67.41
2023-02-19T04:36:18.637Z,63.87
2023-02-19T04:39:42.585Z,60.04
2023-02-19T04:43:06.606Z,56.63
2023-02-19T04:46:30.696Z,58.03
2023-02-19T04:49:54.653Z,62.06
2023-02-19T04:53:18.480Z,64.32
2023-02-19T04:56:42.376Z,63.17
2023-02-19T05:00:06.783Z,60.71
2023-02-19T05:03:30.956Z,55.09
2023-02-19T05:06:54.831Z,55.67
2023-02-19T05:10:18.776Z,57.67
2023-02-19T05:13:42.780Z,60.63
2023-02-19T05:17:07.594Z,65.43
2023-02-19T05:20:31.515Z,65.46
2023-02-19T05:23:55.310Z,62.16
2023-02-19T05:27:19.233Z,58.56
2023-02-19T05:30:43.078Z,53.91
2023-02-19T05:34:06.956Z,54.72
2023-02-19T05:37:30.839Z,56.39
2023-02-19T05:40:54.855Z,57.61
2023-02-19T05:44:18.872Z,59.71
2023-02-19T05:47:42.780Z,60.38
2023-02-19T05:51:09.568Z,62.17
2023-02-19T05:54:33.864Z,68.20
2023-02-19T05:57:58.212Z,66.09
2023-02-19T06:01:25.043Z,62.28
2023-02-19T06:04:49.079Z,56.30
2023-02-19T06:08:19.568Z,54.97
2023-02-19T06:11:43.661Z,56.84
2023-02-19T06:15:08.388Z,58.43
2023-02-19T06:18:32.277Z,60.61
2023-02-19T06:21:56.229Z,64.38
2023-02-19T06:25:21.042Z,67.39
2023-02-19T06:28:45.880Z,63.32
2023-02-19T06:32:10.210Z,59.98
2023-02-19T06:35:35.233Z,56.88
2023-02-19T06:39:02.317Z,55.39
2023-02-19T06:42:26.293Z,56.50
2023-02-19T06:45:50.238Z,58.28
2023-02-19T06:49:16.171Z,65.43
2023-02-19T06:52:40.108Z,65.40
2023-02-19T06:56:07.526Z,61.18
2023-02-19T06:59:31.398Z,55.74
2023-02-19T07:02:56.737Z,55.26
2023-02-19T07:06:22.510Z,59.36
2023-02-19T07:09:46.392Z,60.83
2023-02-19T07:13:10.318Z,66.86
2023-02-19T07:16:35.212Z,68.26
2023-02-19T07:19:59.150Z,62.97
2023-02-19T07:23:23.007Z,55.14
2023-02-19T07:26:46.797Z,55.54
2023-02-19T07:30:11.669Z,58.92
2023-02-19T07:33:35.664Z,61.10
2023-02-19T07:36:59.538Z,66.73
2023-02-19T07:40:23.486Z,66.49
2023-02-19T07:43:47.493Z,60.86
2023-02-19T07:47:11.406Z,54.41
2023-02-19T07:50:35.345Z,54.21
2023-02-19T07:53:59.466Z,57.68
2023-02-19T07:57:23.428Z,59.21
2023-02-19T08:00:47.327Z,62.20
2023-02-19T08:04:13.244Z,66.53
2023-02-19T08:07:38.104Z,59.57
2023-02-19T08:11:24.613Z,55.18
2023-02-19T08:14:48.478Z,56.93
2023-02-19T08:18:14.149Z,60.32
2023-02-19T08:21:38.292Z,65.70
2023-02-19T08:25:02.194Z,63.73
2023-02-19T08:28:26.269Z,54.21
2023-02-19T08:31:51.230Z,54.41
2023-02-19T08:35:15.111Z,57.46
2023-02-19T08:38:39.235Z,59.86
2023-02-19T08:42:03.129Z,63.02
2023-02-19T08:45:27.046Z,63.97
2023-02-19T08:48:51.246Z,56.66
2023-02-19T08:52:15.177Z,55.12
2023-02-19T08:55:39.973Z,57.23
2023-02-19T08:59:03.946Z,58.77
2023-02-19T09:02:28.046Z,58.89
2023-02-19T09:05:51.998Z,60.89
2023-02-19T09:09:15.910Z,61.52
2023-02-19T09:12:40.721Z,65.46
2023-02-19T09:16:06.193Z,62.56
2023-02-19T09:19:30.832Z,57.04
2023-02-19T09:22:59.336Z,53.00
2023-02-19T09:26:25.017Z,55.03
2023-02-19T09:29:48.916Z,57.43
2023-02-19T09:33:12.899Z,58.44
2023-02-19T09:36:36.845Z,59.17
2023-02-19T09:40:00.692Z,60.18
2023-02-19T09:43:28.998Z,60.42
2023-02-19T09:46:55.068Z,65.06
2023-02-19T09:50:23.531Z,62.11
2023-02-19T09:53:51.947Z,53.58
2023-02-19T09:57:19.333Z,52.74
2023-02-19T10:00:43.967Z,54.02
2023-02-19T10:04:07.822Z,55.33
2023-02-19T10:07:40.477Z,56.28
2023-02-19T10:11:06.327Z,57.13
2023-02-19T10:14:45.944Z,58.37
2023-02-19T10:18:11.243Z,58.03
2023-02-19T10:21:35.382Z,58.83
2023-02-19T10:25:00.089Z,58.92
2023-02-19T10:28:29.150Z,59.18
2023-02-19T10:32:19.069Z,58.76
2023-02-19T10:35:57.887Z,59.31
2023-02-19T10:39:24.604Z,60.16
2023-02-19T10:42:55.150Z,60.46
2023-02-19T10:46:25.418Z,60.93
2023-02-19T10:49:52.280Z,61.24
2023-02-19T10:53:24.373Z,60.85
2023-02-19T10:56:48.619Z,61.24
2023-02-19T11:00:27.509Z,61.92
2023-02-19T11:04:15.225Z,61.81
2023-02-19T11:07:45.408Z,62.11
2023-02-19T11:11:09.631Z,63.79
2023-02-19T11:14:35.693Z,63.37
2023-02-19T11:18:20.461Z,53.69
2023-02-19T11:21:44.347Z,51.38
2023-02-19T11:25:11.102Z,52.25
2023-02-19T11:28:41.286Z,53.82
2023-02-19T11:32:26.767Z,54.11
2023-02-19T11:35:54.987Z,54.13
2023-02-19T11:39:18.829Z,54.17
2023-02-19T11:42:57.910Z,55.18
2023-02-19T11:46:59.684Z,55.51
2023-02-19T11:50:30.618Z,55.49
2023-02-19T11:54:33.441Z,56.32
2023-02-19T11:58:34.337Z,56.50
2023-02-19T12:02:18.370Z,56.82
2023-02-19T12:05:50.681Z,57.05
2023-02-19T12:09:33.492Z,57.53
2023-02-19T12:13:24.546Z,56.95
2023-02-19T12:16:52.591Z,57.30
2023-02-19T12:20:22.989Z,57.16
2023-02-19T12:24:14.986Z,57.23
2023-02-19T12:28:20.006Z,58.17
2023-02-19T12:32:06.462Z,58.28
2023-02-19T12:35:52.255Z,58.42
2023-02-19T12:39:40.600Z,57.46
2023-02-19T12:43:23.597Z,57.17
2023-02-19T12:46:56.230Z,56.46
2023-02-19T12:50:26.498Z,55.75
2023-02-19T12:54:16.147Z,54.26
2023-02-19T12:57:40.976Z,55.17
2023-02-19T13:01:08.369Z,55.50
2023-02-19T13:04:52.143Z,54.93
2023-02-19T13:08:48.791Z,54.43
2023-02-19T13:12:38.138Z,54.53
2023-02-19T13:16:09.923Z,54.19
2023-02-19T13:19:34.660Z,54.36
2023-02-19T13:23:22.340Z,54.37
2023-02-19T13:27:04.546Z,54.75
2023-02-19T13:30:39.867Z,53.86
2023-02-19T13:34:22.088Z,54.06
2023-02-19T13:37:46.364Z,54.38
2023-02-19T13:41:29.200Z,54.72
2023-02-19T13:44:57.998Z,55.13
2023-02-19T13:48:25.668Z,55.42
2023-02-19T13:51:52.893Z,56.07
2023-02-19T13:55:46.880Z,56.19
2023-02-19T13:59:37.952Z,56.52
2023-02-19T14:03:28.793Z,57.25
2023-02-19T14:07:04.879Z,58.26
2023-02-19T14:10:47.520Z,59.15
2023-02-19T14:14:36.436Z,58.21
2023-02-19T14:18:00.438Z,57.32
2023-02-19T14:21:39.041Z,56.88
2023-02-19T14:25:09.566Z,56.85
2023-02-19T14:28:38.376Z,56.59
2023-02-19T14:32:06.600Z,56.21
2023-02-19T14:35:41.749Z,56.25
2023-02-19T14:39:22.997Z,56.46
2023-02-19T14:42:47.395Z,56.46
2023-02-19T14:46:24.581Z,56.96
2023-02-19T14:49:51.030Z,57.47
2023-02-19T14:53:18.311Z,57.57
2023-02-19T14:56:48.076Z,58.11
2023-02-19T15:00:29.417Z,58.30
2023-02-19T15:03:57.803Z,58.47
2023-02-19T15:07:31.517Z,59.03
2023-02-19T15:10:56.018Z,59.40
2023-02-19T15:14:24.461Z,59.63
2023-02-19T15:17:48.479Z,60.04
2023-02-19T15:21:22.864Z,60.49
2023-02-19T15:24:48.871Z,60.95
2023-02-19T15:28:28.715Z,60.78
2023-02-19T15:32:00.573Z,61.19
2023-02-19T15:35:26.445Z,61.54
2023-02-19T15:38:55.725Z,61.79
2023-02-19T15:42:30.839Z,61.55
2023-02-19T15:46:10.805Z,61.98
2023-02-19T15:49:50.536Z,63.08
2023-02-19T15:53:26.598Z,68.18
2023-02-19T15:56:52.841Z,62.13
2023-02-19T16:00:23.349Z,55.38
2023-02-19T16:03:48.395Z,53.21
2023-02-19T16:07:32.028Z,54.45
2023-02-19T16:10:57.961Z,55.12
2023-02-19T16:14:29.352Z,57.15
2023-02-19T16:17:54.430Z,58.32
2023-02-19T16:21:23.260Z,59.70
2023-02-19T16:24:50.075Z,60.30
2023-02-19T16:28:27.420Z,60.11
2023-02-19T16:31:54.353Z,60.96
2023-02-19T16:35:40.371Z,61.85
2023-02-19T16:39:07.329Z,61.65
2023-02-19T16:42:31.705Z,67.31
2023-02-19T16:45:55.879Z,67.13
2023-02-19T16:49:22.226Z,61.69
2023-02-19T16:52:58.145Z,53.68
2023-02-19T16:56:25.423Z,53.76
2023-02-19T16:59:49.298Z,55.45
2023-02-19T17:03:20.679Z,56.76
2023-02-19T17:06:45.689Z,59.46
2023-02-19T17:10:14.220Z,59.55
2023-02-19T17:13:39.537Z,60.18
2023-02-19T17:17:03.477Z,61.57
2023-02-19T17:20:32.682Z,65.11
2023-02-19T17:23:57.603Z,68.33
2023-02-19T17:27:21.624Z,62.96
2023-02-19T17:30:45.594Z,54.51
2023-02-19T17:34:09.474Z,53.48
2023-02-19T17:37:33.444Z,55.35
2023-02-19T17:40:57.992Z,56.43
2023-02-19T17:44:22.030Z,57.47
2023-02-19T17:47:48.891Z,58.85
2023-02-19T17:51:13.157Z,59.85
2023-02-19T17:54:37.247Z,61.26
2023-02-19T17:58:01.881Z,65.81
2023-02-19T18:01:26.274Z,64.91
2023-02-19T18:04:50.282Z,59.86
2023-02-19T18:08:14.712Z,54.56
2023-02-19T18:11:38.950Z,55.13
2023-02-19T18:15:03.389Z,57.50
2023-02-19T18:18:31.225Z,58.74
2023-02-19T18:21:55.161Z,59.83
2023-02-19T18:25:22.958Z,60.98
2023-02-19T18:28:49.214Z,65.56
2023-02-19T18:32:15.585Z,65.26
2023-02-19T18:35:39.374Z,58.67
2023-02-19T18:39:03.274Z,54.73
2023-02-19T18:42:28.434Z,55.55
2023-02-19T18:45:54.762Z,57.85
2023-02-19T18:49:19.185Z,58.18
2023-02-19T18:52:43.500Z,59.22
2023-02-19T18:56:09.232Z,60.82
2023-02-19T18:59:33.554Z,64.94
2023-02-19T19:03:01.051Z,67.40
2023-02-19T19:06:27.644Z,64.09
2023-02-19T19:09:51.691Z,60.95
2023-02-19T19:13:15.824Z,54.47
2023-02-19T19:16:39.744Z,54.90
2023-02-19T19:20:04.503Z,55.69
2023-02-19T19:23:28.573Z,58.34
2023-02-19T19:26:53.481Z,60.49
2023-02-19T19:30:18.180Z,61.25
2023-02-19T19:33:43.609Z,67.31
2023-02-19T19:37:10.597Z,67.68
2023-02-19T19:40:34.684Z,61.19
2023-02-19T19:43:58.764Z,55.71
2023-02-19T19:47:22.753Z,54.19
2023-02-19T19:50:49.056Z,55.66
2023-02-19T19:54:13.470Z,57.58
2023-02-19T19:57:40.629Z,60.05
2023-02-19T20:01:06.115Z,61.02
2023-02-19T20:04:30.521Z,65.22
2023-02-19T20:07:55.849Z,66.34
2023-02-19T20:11:19.708Z,58.96
2023-02-19T20:14:47.755Z,55.07
2023-02-19T20:18:11.658Z,55.95
2023-02-19T20:21:38.029Z,57.14
2023-02-19T20:25:02.266Z,59.71
2023-02-19T20:28:26.256Z,61.17
2023-02-19T20:31:51.668Z,65.58
2023-02-19T20:35:16.933Z,67.07
2023-02-19T20:38:43.452Z,64.14
2023-02-19T20:42:08.320Z,59.20
2023-02-19T20:45:33.904Z,54.94
2023-02-19T20:48:58.442Z,56.44
2023-02-19T20:52:24.823Z,58.76
2023-02-19T20:55:48.828Z,59.09
2023-02-19T20:59:13.878Z,60.82
2023-02-19T21:02:38.969Z,66.24
2023-02-19T21:06:03.279Z,66.67
2023-02-19T21:09:27.180Z,58.25
2023-02-19T21:13:13.553Z,54.96
2023-02-19T21:17:11.578Z,56.25
2023-02-19T21:21:09.552Z,58.98
2023-02-19T21:25:07.523Z,61.42
2023-02-19T21:29:06.458Z,67.42
2023-02-19T21:33:04.535Z,62.51
2023-02-19T21:37:02.450Z,56.34
2023-02-19T21:41:01.527Z,54.27
2023-02-19T21:44:59.471Z,56.69
2023-02-19T21:48:57.671Z,56.98
2023-02-19T21:52:55.531Z,60.29
2023-02-19T21:56:53.474Z,62.70
2023-02-19T22:00:51.468Z,67.29
2023-02-19T22:04:49.465Z,62.71
2023-02-19T22:08:47.545Z,58.53
2023-02-19T22:12:45.394Z,54.18
2023-02-19T22:16:43.555Z,55.11
2023-02-19T22:20:44.457Z,57.90
2023-02-19T22:24:42.467Z,59.66
2023-02-19T22:28:40.513Z,60.26
2023-02-19T22:32:38.440Z,60.88
2023-02-19T22:36:38.419Z,66.96
2023-02-19T22:40:36.392Z,66.88
2023-02-19T22:44:34.375Z,62.59
2023-02-19T22:48:32.456Z,54.62
2023-02-19T22:52:30.387Z,53.66
2023-02-19T22:56:30.375Z,54.69
2023-02-19T23:00:34.326Z,58.99
2023-02-19T23:04:32.442Z,59.36
2023-02-19T23:08:30.348Z,65.73
2023-02-19T23:12:28.326Z,67.34
2023-02-19T23:16:26.359Z,57.74
2023-02-19T23:20:24.299Z,52.86
2023-02-19T23:24:22.489Z,55.20
2023-02-19T23:28:20.288Z,56.49
2023-02-19T23:32:18.323Z,59.06
2023-02-19T23:36:16.283Z,64.26
2023-02-19T23:40:14.279Z,66.49
2023-02-19T23:44:12.359Z,58.44
2023-02-19T23:48:10.325Z,53.46
2023-02-19T23:52:08.244Z,54.33
2023-02-19T23:56:06.231Z,57.41
